sensor_id;sensor_type;location;lat;lon;timestamp;P1;durP1;ratioP1;P2;durP2;ratioP2
19664;SDS011;9980;51.020;7.772;2022-07-06T00:02:02;4.00;;;2.30;;
19664;SDS011;9980;51.020;7.772;2022-07-06T00:04:30;6.30;;;2.30;;
19664;SDS011;9980;51.020;7.772;2022-07-06T00:06:57;3.80;;;2.10;;
19664;SDS011;9980;51.020;7.772;2022-07-06T00:09:24;2.90;;;2.27;;
19664;SDS011;9980;51.020;7.772;2022-07-06T00:11:50;3.20;;;2.40;;
19664;SDS011;9980;51.020;7.772;2022-07-06T00:14:17;2.67;;;2.10;;
19664;SDS011;9980;51.020;7.772;2022-07-06T00:16:44;2.20;;;2.00;;
19664;SDS011;9980;51.020;7.772;2022-07-06T00:19:12;3.47;;;2.20;;
19664;SDS011;9980;51.020;7.772;2022-07-06T00:21:39;4.30;;;2.47;;
19664;SDS011;9980;51.020;7.772;2022-07-06T00:24:06;2.73;;;2.03;;
19664;SDS011;9980;51.020;7.772;2022-07-06T00:26:33;2.63;;;2.40;;
19664;SDS011;9980;51.020;7.772;2022-07-06T00:29:00;4.57;;;2.80;;
19664;SDS011;9980;51.020;7.772;2022-07-06T00:31:27;2.97;;;2.40;;
19664;SDS011;9980;51.020;7.772;2022-07-06T00:33:56;5.60;;;2.67;;
19664;SDS011;9980;51.020;7.772;2022-07-06T00:36:23;2.40;;;2.20;;
19664;SDS011;9980;51.020;7.772;2022-07-06T00:38:50;1.93;;;1.80;;
19664;SDS011;9980;51.020;7.772;2022-07-06T00:41:17;5.70;;;2.40;;
19664;SDS011;9980;51.020;7.772;2022-07-06T00:43:51;3.43;;;2.37;;
19664;SDS011;9980;51.020;7.772;2022-07-06T00:46:30;2.40;;;2.00;;
19664;SDS011;9980;51.020;7.772;2022-07-06T00:48:59;2.77;;;2.10;;
19664;SDS011;9980;51.020;7.772;2022-07-06T00:51:30;4.77;;;3.17;;
19664;SDS011;9980;51.020;7.772;2022-07-06T00:54:02;3.00;;;1.70;;
19664;SDS011;9980;51.020;7.772;2022-07-06T00:56:31;3.33;;;2.37;;
19664;SDS011;9980;51.020;7.772;2022-07-06T00:59:00;3.00;;;2.27;;
19664;SDS011;9980;51.020;7.772;2022-07-06T01:01:28;3.70;;;2.80;;
19664;SDS011;9980;51.020;7.772;2022-07-06T01:03:55;1.80;;;1.70;;
19664;SDS011;9980;51.020;7.772;2022-07-06T01:06:22;1.90;;;1.70;;
19664;SDS011;9980;51.020;7.772;2022-07-06T01:08:49;3.00;;;2.20;;
19664;SDS011;9980;51.020;7.772;2022-07-06T01:11:17;3.93;;;2.17;;
19664;SDS011;9980;51.020;7.772;2022-07-06T01:13:47;2.63;;;2.03;;
19664;SDS011;9980;51.020;7.772;2022-07-06T01:16:16;1.90;;;1.70;;
19664;SDS011;9980;51.020;7.772;2022-07-06T01:18:44;1.67;;;1.57;;
19664;SDS011;9980;51.020;7.772;2022-07-06T01:21:11;1.70;;;1.60;;
19664;SDS011;9980;51.020;7.772;2022-07-06T01:23:41;2.63;;;1.80;;
19664;SDS011;9980;51.020;7.772;2022-07-06T01:26:16;4.90;;;1.83;;
19664;SDS011;9980;51.020;7.772;2022-07-06T01:28:46;3.73;;;2.90;;
19664;SDS011;9980;51.020;7.772;2022-07-06T01:31:27;2.50;;;2.30;;
19664;SDS011;9980;51.020;7.772;2022-07-06T01:33:57;1.70;;;1.60;;
19664;SDS011;9980;51.020;7.772;2022-07-06T01:36:26;2.20;;;2.00;;
19664;SDS011;9980;51.020;7.772;2022-07-06T01:38:53;2.13;;;1.93;;
19664;SDS011;9980;51.020;7.772;2022-07-06T01:41:25;3.00;;;2.07;;
19664;SDS011;9980;51.020;7.772;2022-07-06T01:43:52;1.90;;;1.80;;
19664;SDS011;9980;51.020;7.772;2022-07-06T01:46:20;1.50;;;1.40;;
19664;SDS011;9980;51.020;7.772;2022-07-06T01:48:47;2.43;;;1.60;;
19664;SDS011;9980;51.020;7.772;2022-07-06T01:51:14;1.70;;;1.60;;
19664;SDS011;9980;51.020;7.772;2022-07-06T01:53:43;5.57;;;2.10;;
19664;SDS011;9980;51.020;7.772;2022-07-06T01:56:11;8.90;;;2.50;;
19664;SDS011;9980;51.020;7.772;2022-07-06T01:58:39;3.83;;;2.47;;
19664;SDS011;9980;51.020;7.772;2022-07-06T02:01:12;4.57;;;1.87;;
19664;SDS011;9980;51.020;7.772;2022-07-06T02:03:42;2.40;;;2.20;;
19664;SDS011;9980;51.020;7.772;2022-07-06T02:06:10;4.53;;;2.70;;
19664;SDS011;9980;51.020;7.772;2022-07-06T02:08:38;2.60;;;2.40;;
19664;SDS011;9980;51.020;7.772;2022-07-06T02:11:07;3.20;;;2.67;;
19664;SDS011;9980;51.020;7.772;2022-07-06T02:13:37;3.93;;;2.30;;
19664;SDS011;9980;51.020;7.772;2022-07-06T02:16:07;3.37;;;2.70;;
19664;SDS011;9980;51.020;7.772;2022-07-06T02:18:35;3.50;;;3.10;;
19664;SDS011;9980;51.020;7.772;2022-07-06T02:21:03;3.63;;;2.70;;
19664;SDS011;9980;51.020;7.772;2022-07-06T02:23:31;3.80;;;2.73;;
19664;SDS011;9980;51.020;7.772;2022-07-06T02:25:58;2.90;;;2.63;;
19664;SDS011;9980;51.020;7.772;2022-07-06T02:28:25;2.70;;;2.50;;
19664;SDS011;9980;51.020;7.772;2022-07-06T02:30:52;6.17;;;3.33;;
19664;SDS011;9980;51.020;7.772;2022-07-06T02:33:20;5.57;;;2.27;;
19664;SDS011;9980;51.020;7.772;2022-07-06T02:35:47;5.60;;;2.73;;
19664;SDS011;9980;51.020;7.772;2022-07-06T02:38:15;3.83;;;2.63;;
19664;SDS011;9980;51.020;7.772;2022-07-06T02:40:42;4.53;;;3.10;;
19664;SDS011;9980;51.020;7.772;2022-07-06T02:43:09;3.10;;;2.60;;
19664;SDS011;9980;51.020;7.772;2022-07-06T02:45:38;2.40;;;2.20;;
19664;SDS011;9980;51.020;7.772;2022-07-06T02:48:05;2.57;;;2.00;;
19664;SDS011;9980;51.020;7.772;2022-07-06T02:50:33;2.10;;;1.90;;
19664;SDS011;9980;51.020;7.772;2022-07-06T02:53:00;3.83;;;2.50;;
19664;SDS011;9980;51.020;7.772;2022-07-06T02:55:29;3.40;;;3.00;;
19664;SDS011;9980;51.020;7.772;2022-07-06T02:57:56;4.20;;;3.43;;
19664;SDS011;9980;51.020;7.772;2022-07-06T03:00:24;3.23;;;2.97;;
19664;SDS011;9980;51.020;7.772;2022-07-06T03:02:51;2.40;;;2.20;;
19664;SDS011;9980;51.020;7.772;2022-07-06T03:05:19;5.67;;;3.13;;
19664;SDS011;9980;51.020;7.772;2022-07-06T03:07:46;9.23;;;4.73;;
19664;SDS011;9980;51.020;7.772;2022-07-06T03:10:14;6.30;;;3.53;;
19664;SDS011;9980;51.020;7.772;2022-07-06T03:12:41;3.10;;;2.80;;
19664;SDS011;9980;51.020;7.772;2022-07-06T03:15:09;2.27;;;2.07;;
19664;SDS011;9980;51.020;7.772;2022-07-06T03:17:38;3.10;;;2.53;;
19664;SDS011;9980;51.020;7.772;2022-07-06T03:20:06;3.23;;;2.93;;
19664;SDS011;9980;51.020;7.772;2022-07-06T03:22:34;6.17;;;4.10;;
19664;SDS011;9980;51.020;7.772;2022-07-06T03:25:03;3.47;;;3.17;;
19664;SDS011;9980;51.020;7.772;2022-07-06T03:27:31;6.33;;;4.17;;
19664;SDS011;9980;51.020;7.772;2022-07-06T03:30:00;4.83;;;3.00;;
19664;SDS011;9980;51.020;7.772;2022-07-06T03:32:28;4.67;;;4.17;;
19664;SDS011;9980;51.020;7.772;2022-07-06T03:34:55;2.90;;;2.63;;
19664;SDS011;9980;51.020;7.772;2022-07-06T03:37:23;5.70;;;3.03;;
19664;SDS011;9980;51.020;7.772;2022-07-06T03:39:50;2.90;;;2.70;;
19664;SDS011;9980;51.020;7.772;2022-07-06T03:42:17;3.20;;;2.90;;
19664;SDS011;9980;51.020;7.772;2022-07-06T03:44:44;3.67;;;2.67;;
19664;SDS011;9980;51.020;7.772;2022-07-06T03:47:11;3.57;;;2.87;;
19664;SDS011;9980;51.020;7.772;2022-07-06T03:49:39;4.00;;;3.70;;
19664;SDS011;9980;51.020;7.772;2022-07-06T03:52:07;6.47;;;3.90;;
19664;SDS011;9980;51.020;7.772;2022-07-06T03:54:41;5.60;;;4.30;;
19664;SDS011;9980;51.020;7.772;2022-07-06T03:57:10;14.93;;;4.97;;
19664;SDS011;9980;51.020;7.772;2022-07-06T03:59:39;5.37;;;4.20;;
19664;SDS011;9980;51.020;7.772;2022-07-06T04:02:07;4.20;;;3.77;;
19664;SDS011;9980;51.020;7.772;2022-07-06T04:04:36;4.10;;;3.60;;
19664;SDS011;9980;51.020;7.772;2022-07-06T04:07:03;7.43;;;4.40;;
19664;SDS011;9980;51.020;7.772;2022-07-06T04:09:31;5.87;;;4.60;;
19664;SDS011;9980;51.020;7.772;2022-07-06T04:11:58;6.93;;;4.40;;
19664;SDS011;9980;51.020;7.772;2022-07-06T04:14:25;6.93;;;4.17;;
19664;SDS011;9980;51.020;7.772;2022-07-06T04:16:54;7.00;;;4.90;;
19664;SDS011;9980;51.020;7.772;2022-07-06T04:19:21;5.20;;;4.10;;
19664;SDS011;9980;51.020;7.772;2022-07-06T04:21:49;4.33;;;3.93;;
19664;SDS011;9980;51.020;7.772;2022-07-06T04:24:16;4.93;;;4.03;;
19664;SDS011;9980;51.020;7.772;2022-07-06T04:26:43;4.47;;;4.07;;
19664;SDS011;9980;51.020;7.772;2022-07-06T04:29:10;4.67;;;4.10;;
19664;SDS011;9980;51.020;7.772;2022-07-06T04:31:37;5.73;;;4.57;;
19664;SDS011;9980;51.020;7.772;2022-07-06T04:34:05;6.50;;;4.23;;
19664;SDS011;9980;51.020;7.772;2022-07-06T04:36:32;5.63;;;4.23;;
19664;SDS011;9980;51.020;7.772;2022-07-06T04:38:59;4.77;;;4.10;;
19664;SDS011;9980;51.020;7.772;2022-07-06T04:41:26;5.07;;;4.40;;
19664;SDS011;9980;51.020;7.772;2022-07-06T04:43:53;5.30;;;4.17;;
19664;SDS011;9980;51.020;7.772;2022-07-06T04:46:21;5.60;;;4.40;;
19664;SDS011;9980;51.020;7.772;2022-07-06T04:48:50;6.30;;;4.47;;
19664;SDS011;9980;51.020;7.772;2022-07-06T04:51:22;5.57;;;4.13;;
19664;SDS011;9980;51.020;7.772;2022-07-06T04:53:49;5.47;;;3.97;;
19664;SDS011;9980;51.020;7.772;2022-07-06T04:56:18;4.90;;;3.87;;
19664;SDS011;9980;51.020;7.772;2022-07-06T04:58:45;6.67;;;4.70;;
19664;SDS011;9980;51.020;7.772;2022-07-06T05:01:15;6.23;;;3.83;;
19664;SDS011;9980;51.020;7.772;2022-07-06T05:03:42;8.67;;;4.83;;
19664;SDS011;9980;51.020;7.772;2022-07-06T05:06:11;6.23;;;4.40;;
19664;SDS011;9980;51.020;7.772;2022-07-06T05:08:38;10.73;;;4.40;;
19664;SDS011;9980;51.020;7.772;2022-07-06T05:11:06;4.60;;;4.07;;
19664;SDS011;9980;51.020;7.772;2022-07-06T05:13:33;18.73;;;6.03;;
19664;SDS011;9980;51.020;7.772;2022-07-06T05:16:00;18.13;;;6.00;;
19664;SDS011;9980;51.020;7.772;2022-07-06T05:18:28;14.53;;;5.93;;
19664;SDS011;9980;51.020;7.772;2022-07-06T05:20:57;5.13;;;3.27;;
19664;SDS011;9980;51.020;7.772;2022-07-06T05:23:24;7.27;;;4.17;;
19664;SDS011;9980;51.020;7.772;2022-07-06T05:25:53;4.37;;;3.97;;
19664;SDS011;9980;51.020;7.772;2022-07-06T05:28:21;14.73;;;5.97;;
19664;SDS011;9980;51.020;7.772;2022-07-06T05:30:48;4.37;;;3.97;;
19664;SDS011;9980;51.020;7.772;2022-07-06T05:33:16;5.30;;;3.50;;
19664;SDS011;9980;51.020;7.772;2022-07-06T05:35:44;4.33;;;3.03;;
19664;SDS011;9980;51.020;7.772;2022-07-06T05:38:20;10.10;;;3.23;;
19664;SDS011;9980;51.020;7.772;2022-07-06T05:40:48;3.60;;;2.63;;
19664;SDS011;9980;51.020;7.772;2022-07-06T05:43:15;6.67;;;2.63;;
19664;SDS011;9980;51.020;7.772;2022-07-06T05:45:45;4.87;;;2.27;;
19664;SDS011;9980;51.020;7.772;2022-07-06T05:48:14;2.83;;;2.13;;
19664;SDS011;9980;51.020;7.772;2022-07-06T05:51:01;6.73;;;2.20;;
19664;SDS011;9980;51.020;7.772;2022-07-06T05:53:28;2.40;;;1.90;;
19664;SDS011;9980;51.020;7.772;2022-07-06T05:55:55;3.87;;;2.00;;
19664;SDS011;9980;51.020;7.772;2022-07-06T05:58:24;4.50;;;1.80;;
19664;SDS011;9980;51.020;7.772;2022-07-06T06:00:54;4.53;;;2.23;;
19664;SDS011;9980;51.020;7.772;2022-07-06T06:03:21;5.37;;;1.80;;
19664;SDS011;9980;51.020;7.772;2022-07-06T06:05:49;4.27;;;2.13;;
19664;SDS011;9980;51.020;7.772;2022-07-06T06:08:18;3.53;;;1.90;;
19664;SDS011;9980;51.020;7.772;2022-07-06T06:10:45;4.67;;;2.17;;
19664;SDS011;9980;51.020;7.772;2022-07-06T06:13:16;6.50;;;2.10;;
19664;SDS011;9980;51.020;7.772;2022-07-06T06:15:43;3.13;;;1.80;;
19664;SDS011;9980;51.020;7.772;2022-07-06T06:18:11;4.23;;;1.87;;
19664;SDS011;9980;51.020;7.772;2022-07-06T06:20:38;5.87;;;2.00;;
19664;SDS011;9980;51.020;7.772;2022-07-06T06:23:05;6.27;;;2.37;;
19664;SDS011;9980;51.020;7.772;2022-07-06T06:25:33;2.13;;;1.70;;
19664;SDS011;9980;51.020;7.772;2022-07-06T06:28:05;3.43;;;1.90;;
19664;SDS011;9980;51.020;7.772;2022-07-06T06:30:35;2.63;;;1.70;;
19664;SDS011;9980;51.020;7.772;2022-07-06T06:33:22;4.00;;;2.03;;
19664;SDS011;9980;51.020;7.772;2022-07-06T06:35:52;3.27;;;1.90;;
19664;SDS011;9980;51.020;7.772;2022-07-06T06:38:21;2.77;;;1.70;;
19664;SDS011;9980;51.020;7.772;2022-07-06T06:40:54;2.10;;;1.70;;
19664;SDS011;9980;51.020;7.772;2022-07-06T06:43:21;5.33;;;1.80;;
19664;SDS011;9980;51.020;7.772;2022-07-06T06:45:58;3.03;;;1.80;;
19664;SDS011;9980;51.020;7.772;2022-07-06T06:48:25;6.97;;;2.40;;
19664;SDS011;9980;51.020;7.772;2022-07-06T06:50:52;4.60;;;1.87;;
19664;SDS011;9980;51.020;7.772;2022-07-06T06:53:19;3.93;;;1.60;;
19664;SDS011;9980;51.020;7.772;2022-07-06T06:55:46;3.60;;;1.80;;
19664;SDS011;9980;51.020;7.772;2022-07-06T06:58:13;4.07;;;1.80;;
19664;SDS011;9980;51.020;7.772;2022-07-06T07:00:40;2.50;;;1.60;;
19664;SDS011;9980;51.020;7.772;2022-07-06T07:03:09;4.83;;;1.37;;
19664;SDS011;9980;51.020;7.772;2022-07-06T07:05:36;3.30;;;1.53;;
19664;SDS011;9980;51.020;7.772;2022-07-06T07:08:03;4.27;;;1.70;;
19664;SDS011;9980;51.020;7.772;2022-07-06T07:10:31;3.10;;;1.70;;
19664;SDS011;9980;51.020;7.772;2022-07-06T07:12:59;2.37;;;1.30;;
19664;SDS011;9980;51.020;7.772;2022-07-06T07:15:26;4.33;;;1.40;;
19664;SDS011;9980;51.020;7.772;2022-07-06T07:17:53;4.23;;;1.30;;
19664;SDS011;9980;51.020;7.772;2022-07-06T07:20:20;3.77;;;1.60;;
19664;SDS011;9980;51.020;7.772;2022-07-06T07:22:47;2.20;;;1.73;;
19664;SDS011;9980;51.020;7.772;2022-07-06T07:25:14;1.93;;;1.63;;
19664;SDS011;9980;51.020;7.772;2022-07-06T07:27:41;2.70;;;1.70;;
19664;SDS011;9980;51.020;7.772;2022-07-06T07:30:09;5.33;;;2.10;;
19664;SDS011;9980;51.020;7.772;2022-07-06T07:32:36;2.20;;;1.77;;
19664;SDS011;9980;51.020;7.772;2022-07-06T07:35:06;2.63;;;1.90;;
19664;SDS011;9980;51.020;7.772;2022-07-06T07:37:35;4.00;;;2.07;;
19664;SDS011;9980;51.020;7.772;2022-07-06T07:40:02;3.33;;;2.00;;
19664;SDS011;9980;51.020;7.772;2022-07-06T07:42:31;5.83;;;2.07;;
19664;SDS011;9980;51.020;7.772;2022-07-06T07:44:58;2.47;;;1.80;;
19664;SDS011;9980;51.020;7.772;2022-07-06T07:47:25;4.27;;;2.00;;
19664;SDS011;9980;51.020;7.772;2022-07-06T07:49:52;3.90;;;2.10;;
19664;SDS011;9980;51.020;7.772;2022-07-06T07:52:19;4.40;;;2.30;;
19664;SDS011;9980;51.020;7.772;2022-07-06T07:54:46;3.13;;;2.73;;
19664;SDS011;9980;51.020;7.772;2022-07-06T07:57:33;4.63;;;2.67;;
19664;SDS011;9980;51.020;7.772;2022-07-06T08:00:00;3.43;;;2.90;;
19664;SDS011;9980;51.020;7.772;2022-07-06T08:02:36;3.40;;;2.60;;
19664;SDS011;9980;51.020;7.772;2022-07-06T08:05:04;4.20;;;2.80;;
19664;SDS011;9980;51.020;7.772;2022-07-06T08:07:31;4.20;;;2.97;;
19664;SDS011;9980;51.020;7.772;2022-07-06T08:09:59;2.77;;;2.57;;
19664;SDS011;9980;51.020;7.772;2022-07-06T08:12:26;4.87;;;3.50;;
19664;SDS011;9980;51.020;7.772;2022-07-06T08:14:53;2.57;;;2.37;;
19664;SDS011;9980;51.020;7.772;2022-07-06T08:17:19;4.53;;;2.23;;
19664;SDS011;9980;51.020;7.772;2022-07-06T08:19:47;3.30;;;2.60;;
19664;SDS011;9980;51.020;7.772;2022-07-06T08:22:14;5.40;;;3.03;;
19664;SDS011;9980;51.020;7.772;2022-07-06T08:24:41;2.67;;;1.83;;
19664;SDS011;9980;51.020;7.772;2022-07-06T08:27:08;1.90;;;1.50;;
19664;SDS011;9980;51.020;7.772;2022-07-06T08:29:35;4.33;;;1.93;;
19664;SDS011;9980;51.020;7.772;2022-07-06T08:32:02;4.67;;;2.23;;
19664;SDS011;9980;51.020;7.772;2022-07-06T08:34:43;4.33;;;2.13;;
19664;SDS011;9980;51.020;7.772;2022-07-06T08:37:10;6.87;;;3.70;;
19664;SDS011;9980;51.020;7.772;2022-07-06T08:39:37;6.07;;;2.53;;
19664;SDS011;9980;51.020;7.772;2022-07-06T08:42:04;4.50;;;2.57;;
19664;SDS011;9980;51.020;7.772;2022-07-06T08:44:34;4.13;;;2.07;;
19664;SDS011;9980;51.020;7.772;2022-07-06T08:47:04;2.93;;;2.37;;
19664;SDS011;9980;51.020;7.772;2022-07-06T08:49:37;3.13;;;2.03;;
19664;SDS011;9980;51.020;7.772;2022-07-06T08:52:04;5.87;;;2.27;;
19664;SDS011;9980;51.020;7.772;2022-07-06T08:54:34;3.90;;;2.00;;
19664;SDS011;9980;51.020;7.772;2022-07-06T08:57:02;2.90;;;1.73;;
19664;SDS011;9980;51.020;7.772;2022-07-06T08:59:30;3.73;;;1.93;;
19664;SDS011;9980;51.020;7.772;2022-07-06T09:01:58;2.33;;;1.40;;
19664;SDS011;9980;51.020;7.772;2022-07-06T09:04:27;3.90;;;1.30;;
19664;SDS011;9980;51.020;7.772;2022-07-06T09:06:54;2.30;;;1.00;;
19664;SDS011;9980;51.020;7.772;2022-07-06T09:09:23;2.93;;;1.40;;
19664;SDS011;9980;51.020;7.772;2022-07-06T09:11:50;1.27;;;1.10;;
19664;SDS011;9980;51.020;7.772;2022-07-06T09:14:18;1.70;;;1.03;;
19664;SDS011;9980;51.020;7.772;2022-07-06T09:16:46;1.10;;;1.00;;
19664;SDS011;9980;51.020;7.772;2022-07-06T09:19:18;1.30;;;1.10;;
19664;SDS011;9980;51.020;7.772;2022-07-06T09:21:45;1.30;;;1.10;;
19664;SDS011;9980;51.020;7.772;2022-07-06T09:24:12;3.27;;;1.20;;
19664;SDS011;9980;51.020;7.772;2022-07-06T09:26:40;2.47;;;1.13;;
19664;SDS011;9980;51.020;7.772;2022-07-06T09:29:10;3.50;;;1.03;;
19664;SDS011;9980;51.020;7.772;2022-07-06T09:31:37;6.90;;;1.40;;
19664;SDS011;9980;51.020;7.772;2022-07-06T09:34:05;3.20;;;1.30;;
19664;SDS011;9980;51.020;7.772;2022-07-06T09:36:41;1.70;;;1.30;;
19664;SDS011;9980;51.020;7.772;2022-07-06T09:41:56;2.13;;;1.30;;
19664;SDS011;9980;51.020;7.772;2022-07-06T09:44:26;2.00;;;1.03;;
19664;SDS011;9980;51.020;7.772;2022-07-06T09:47:04;3.50;;;1.63;;
19664;SDS011;9980;51.020;7.772;2022-07-06T09:49:36;2.20;;;1.20;;
19664;SDS011;9980;51.020;7.772;2022-07-06T09:52:09;3.30;;;1.10;;
19664;SDS011;9980;51.020;7.772;2022-07-06T09:54:37;16.33;;;4.03;;
19664;SDS011;9980;51.020;7.772;2022-07-06T09:57:05;2.80;;;1.30;;
19664;SDS011;9980;51.020;7.772;2022-07-06T09:59:35;7.37;;;2.87;;
19664;SDS011;9980;51.020;7.772;2022-07-06T10:02:07;1.20;;;1.00;;
19664;SDS011;9980;51.020;7.772;2022-07-06T10:04:35;2.07;;;1.60;;
19664;SDS011;9980;51.020;7.772;2022-07-06T10:07:02;1.43;;;1.10;;
19664;SDS011;9980;51.020;7.772;2022-07-06T10:09:33;1.63;;;1.10;;
19664;SDS011;9980;51.020;7.772;2022-07-06T10:12:02;1.50;;;1.17;;
19664;SDS011;9980;51.020;7.772;2022-07-06T10:14:32;2.63;;;1.30;;
19664;SDS011;9980;51.020;7.772;2022-07-06T10:17:00;3.17;;;1.20;;
19664;SDS011;9980;51.020;7.772;2022-07-06T10:19:31;3.37;;;1.40;;
19664;SDS011;9980;51.020;7.772;2022-07-06T10:22:00;3.53;;;1.60;;
19664;SDS011;9980;51.020;7.772;2022-07-06T10:24:29;1.90;;;1.33;;
19664;SDS011;9980;51.020;7.772;2022-07-06T10:27:01;3.22;;;1.48;;
19664;SDS011;9980;51.020;7.772;2022-07-06T10:29:29;1.48;;;1.10;;
19664;SDS011;9980;51.020;7.772;2022-07-06T10:31:58;4.50;;;1.77;;
19664;SDS011;9980;51.020;7.772;2022-07-06T10:34:26;1.83;;;1.00;;
19664;SDS011;9980;51.020;7.772;2022-07-06T10:36:54;5.30;;;1.67;;
19664;SDS011;9980;51.020;7.772;2022-07-06T10:39:31;4.73;;;1.20;;
19664;SDS011;9980;51.020;7.772;2022-07-06T10:45:11;2.23;;;1.20;;
19664;SDS011;9980;51.020;7.772;2022-07-06T10:47:41;4.73;;;1.10;;
19664;SDS011;9980;51.020;7.772;2022-07-06T10:50:08;1.53;;;1.10;;
19664;SDS011;9980;51.020;7.772;2022-07-06T10:52:52;3.77;;;1.57;;
19664;SDS011;9980;51.020;7.772;2022-07-06T10:55:29;2.40;;;1.50;;
19664;SDS011;9980;51.020;7.772;2022-07-06T10:57:59;3.80;;;1.30;;
19664;SDS011;9980;51.020;7.772;2022-07-06T11:00:41;2.60;;;1.50;;
19664;SDS011;9980;51.020;7.772;2022-07-06T11:06:01;1.97;;;1.30;;
19664;SDS011;9980;51.020;7.772;2022-07-06T11:08:44;6.90;;;2.43;;
19664;SDS011;9980;51.020;7.772;2022-07-06T11:11:36;9.20;;;2.17;;
19664;SDS011;9980;51.020;7.772;2022-07-06T11:14:09;1.47;;;1.30;;
19664;SDS011;9980;51.020;7.772;2022-07-06T11:19:21;2.13;;;1.47;;
19664;SDS011;9980;51.020;7.772;2022-07-06T11:21:53;4.77;;;1.67;;
19664;SDS011;9980;51.020;7.772;2022-07-06T11:24:41;10.30;;;1.83;;
19664;SDS011;9980;51.020;7.772;2022-07-06T11:27:09;1.50;;;1.30;;
19664;SDS011;9980;51.020;7.772;2022-07-06T11:29:36;3.17;;;1.50;;
19664;SDS011;9980;51.020;7.772;2022-07-06T11:32:06;3.30;;;1.70;;
19664;SDS011;9980;51.020;7.772;2022-07-06T11:34:39;2.08;;;1.10;;
19664;SDS011;9980;51.020;7.772;2022-07-06T11:37:11;1.40;;;1.20;;
19664;SDS011;9980;51.020;7.772;2022-07-06T11:39:42;1.90;;;1.20;;
19664;SDS011;9980;51.020;7.772;2022-07-06T11:42:14;5.43;;;2.20;;
19664;SDS011;9980;51.020;7.772;2022-07-06T11:44:44;1.20;;;1.10;;
19664;SDS011;9980;51.020;7.772;2022-07-06T11:47:12;2.33;;;1.40;;
19664;SDS011;9980;51.020;7.772;2022-07-06T11:49:49;2.28;;;1.63;;
19664;SDS011;9980;51.020;7.772;2022-07-06T11:52:16;1.88;;;1.50;;
19664;SDS011;9980;51.020;7.772;2022-07-06T11:54:43;4.88;;;1.60;;
19664;SDS011;9980;51.020;7.772;2022-07-06T11:57:11;2.15;;;1.95;;
19664;SDS011;9980;51.020;7.772;2022-07-06T11:59:39;2.22;;;2.10;;
19664;SDS011;9980;51.020;7.772;2022-07-06T12:02:09;5.03;;;2.67;;
19664;SDS011;9980;51.020;7.772;2022-07-06T12:04:40;3.13;;;2.60;;
19664;SDS011;9980;51.020;7.772;2022-07-06T12:07:10;2.22;;;2.00;;
19664;SDS011;9980;51.020;7.772;2022-07-06T12:09:40;2.83;;;2.22;;
19664;SDS011;9980;51.020;7.772;2022-07-06T12:12:10;3.90;;;2.45;;
19664;SDS011;9980;51.020;7.772;2022-07-06T12:14:40;5.55;;;2.67;;
19664;SDS011;9980;51.020;7.772;2022-07-06T12:17:08;2.15;;;1.95;;
19664;SDS011;9980;51.020;7.772;2022-07-06T12:19:38;3.15;;;2.25;;
19664;SDS011;9980;51.020;7.772;2022-07-06T12:22:06;3.35;;;2.03;;
19664;SDS011;9980;51.020;7.772;2022-07-06T12:24:35;3.42;;;2.70;;
19664;SDS011;9980;51.020;7.772;2022-07-06T12:27:11;1.95;;;1.83;;
19664;SDS011;9980;51.020;7.772;2022-07-06T12:29:44;1.90;;;1.80;;
19664;SDS011;9980;51.020;7.772;2022-07-06T12:32:16;6.68;;;1.98;;
19664;SDS011;9980;51.020;7.772;2022-07-06T12:34:46;1.60;;;1.50;;
19664;SDS011;9980;51.020;7.772;2022-07-06T12:37:13;3.20;;;2.05;;
19664;SDS011;9980;51.020;7.772;2022-07-06T12:39:49;1.80;;;1.70;;
19664;SDS011;9980;51.020;7.772;2022-07-06T12:42:16;2.70;;;1.55;;
19664;SDS011;9980;51.020;7.772;2022-07-06T12:44:52;1.70;;;1.60;;
19664;SDS011;9980;51.020;7.772;2022-07-06T12:47:23;2.53;;;2.17;;
19664;SDS011;9980;51.020;7.772;2022-07-06T12:50:04;2.60;;;1.40;;
19664;SDS011;9980;51.020;7.772;2022-07-06T12:52:34;1.63;;;1.30;;
19664;SDS011;9980;51.020;7.772;2022-07-06T12:55:03;3.55;;;1.40;;
19664;SDS011;9980;51.020;7.772;2022-07-06T12:57:44;4.13;;;1.50;;
19664;SDS011;9980;51.020;7.772;2022-07-06T13:00:15;3.20;;;1.58;;
19664;SDS011;9980;51.020;7.772;2022-07-06T13:02:45;2.60;;;1.83;;
19664;SDS011;9980;51.020;7.772;2022-07-06T13:05:36;2.38;;;1.55;;
19664;SDS011;9980;51.020;7.772;2022-07-06T13:08:05;1.98;;;1.48;;
19664;SDS011;9980;51.020;7.772;2022-07-06T13:10:32;2.05;;;1.52;;
19664;SDS011;9980;51.020;7.772;2022-07-06T13:13:01;2.28;;;1.40;;
19664;SDS011;9980;51.020;7.772;2022-07-06T13:15:28;10.38;;;1.50;;
19664;SDS011;9980;51.020;7.772;2022-07-06T13:17:55;2.35;;;1.38;;
19664;SDS011;9980;51.020;7.772;2022-07-06T13:20:22;2.92;;;1.23;;
19664;SDS011;9980;51.020;7.772;2022-07-06T13:22:49;2.75;;;1.20;;
19664;SDS011;9980;51.020;7.772;2022-07-06T13:25:16;5.15;;;1.85;;
19664;SDS011;9980;51.020;7.772;2022-07-06T13:27:43;3.45;;;1.50;;
19664;SDS011;9980;51.020;7.772;2022-07-06T13:30:11;2.00;;;1.20;;
19664;SDS011;9980;51.020;7.772;2022-07-06T13:32:38;3.78;;;1.40;;
19664;SDS011;9980;51.020;7.772;2022-07-06T13:35:06;4.90;;;1.48;;
19664;SDS011;9980;51.020;7.772;2022-07-06T13:37:36;2.30;;;1.30;;
19664;SDS011;9980;51.020;7.772;2022-07-06T13:40:03;2.35;;;1.27;;
19664;SDS011;9980;51.020;7.772;2022-07-06T13:42:31;2.67;;;1.30;;
19664;SDS011;9980;51.020;7.772;2022-07-06T13:44:58;1.65;;;1.27;;
19664;SDS011;9980;51.020;7.772;2022-07-06T13:47:25;1.27;;;1.17;;
19664;SDS011;9980;51.020;7.772;2022-07-06T13:49:51;2.08;;;1.27;;
19664;SDS011;9980;51.020;7.772;2022-07-06T13:52:18;1.63;;;1.35;;
19664;SDS011;9980;51.020;7.772;2022-07-06T13:54:45;2.35;;;1.38;;
19664;SDS011;9980;51.020;7.772;2022-07-06T13:57:12;1.52;;;1.27;;
19664;SDS011;9980;51.020;7.772;2022-07-06T13:59:39;4.00;;;1.30;;
19664;SDS011;9980;51.020;7.772;2022-07-06T14:02:06;1.77;;;1.23;;
19664;SDS011;9980;51.020;7.772;2022-07-06T14:04:33;2.40;;;1.40;;
19664;SDS011;9980;51.020;7.772;2022-07-06T14:07:00;2.03;;;1.13;;
19664;SDS011;9980;51.020;7.772;2022-07-06T14:09:28;2.60;;;1.40;;
19664;SDS011;9980;51.020;7.772;2022-07-06T14:11:55;4.97;;;1.33;;
19664;SDS011;9980;51.020;7.772;2022-07-06T14:14:23;3.85;;;1.20;;
19664;SDS011;9980;51.020;7.772;2022-07-06T14:16:50;2.13;;;1.38;;
19664;SDS011;9980;51.020;7.772;2022-07-06T14:19:17;2.10;;;1.25;;
19664;SDS011;9980;51.020;7.772;2022-07-06T14:21:47;4.72;;;1.58;;
19664;SDS011;9980;51.020;7.772;2022-07-06T14:24:14;20.08;;;4.82;;
19664;SDS011;9980;51.020;7.772;2022-07-06T14:26:42;23.35;;;3.72;;
19664;SDS011;9980;51.020;7.772;2022-07-06T14:29:10;34.92;;;8.48;;
19664;SDS011;9980;51.020;7.772;2022-07-06T14:31:37;15.02;;;4.45;;
19664;SDS011;9980;51.020;7.772;2022-07-06T14:34:04;2.90;;;1.70;;
19664;SDS011;9980;51.020;7.772;2022-07-06T14:36:31;5.88;;;1.77;;
19664;SDS011;9980;51.020;7.772;2022-07-06T14:39:00;7.70;;;1.80;;
19664;SDS011;9980;51.020;7.772;2022-07-06T14:41:27;8.30;;;2.03;;
19664;SDS011;9980;51.020;7.772;2022-07-06T14:43:54;1.67;;;1.05;;
19664;SDS011;9980;51.020;7.772;2022-07-06T14:46:21;4.03;;;1.52;;
19664;SDS011;9980;51.020;7.772;2022-07-06T14:48:48;1.25;;;1.00;;
19664;SDS011;9980;51.020;7.772;2022-07-06T14:51:15;3.28;;;1.25;;
19664;SDS011;9980;51.020;7.772;2022-07-06T14:53:42;3.60;;;1.20;;
19664;SDS011;9980;51.020;7.772;2022-07-06T14:56:09;2.97;;;1.40;;
19664;SDS011;9980;51.020;7.772;2022-07-06T14:58:36;1.50;;;1.20;;
19664;SDS011;9980;51.020;7.772;2022-07-06T15:01:06;3.88;;;1.40;;
19664;SDS011;9980;51.020;7.772;2022-07-06T15:03:33;4.30;;;1.60;;
19664;SDS011;9980;51.020;7.772;2022-07-06T15:06:00;5.90;;;1.42;;
19664;SDS011;9980;51.020;7.772;2022-07-06T15:08:27;3.50;;;1.80;;
19664;SDS011;9980;51.020;7.772;2022-07-06T15:10:54;1.80;;;1.48;;
19664;SDS011;9980;51.020;7.772;2022-07-06T15:13:21;4.75;;;1.92;;
19664;SDS011;9980;51.020;7.772;2022-07-06T15:15:49;4.07;;;2.13;;
19664;SDS011;9980;51.020;7.772;2022-07-06T15:18:23;4.10;;;1.60;;
19664;SDS011;9980;51.020;7.772;2022-07-06T15:20:51;3.17;;;1.80;;
19664;SDS011;9980;51.020;7.772;2022-07-06T15:23:18;3.85;;;2.03;;